createdAt,value
2018-11-05T00:04:22.347Z,12.07
2018-11-05T00:06:55.220Z,14.03
2018-11-05T00:09:31.880Z,14.10
2018-11-05T00:12:04.738Z,17.53
2018-11-05T00:14:38.850Z,21.00
2018-11-05T00:17:12.785Z,31.23
2018-11-05T00:19:47.487Z,22.60
2018-11-05T00:22:20.795Z,21.13
2018-11-05T00:24:53.999Z,19.80
2018-11-05T00:30:16.967Z,22.53
2018-11-05T00:32:50.163Z,20.57
2018-11-05T00:35:23.355Z,19.50
2018-11-05T00:37:56.756Z,17.83
2018-11-05T00:40:29.071Z,14.90
2018-11-05T00:43:02.025Z,18.10
2018-11-05T00:45:35.000Z,17.27
2018-11-05T00:48:07.925Z,19.10
2018-11-05T00:50:40.908Z,21.30
2018-11-05T00:53:13.798Z,18.60
2018-11-05T00:55:46.774Z,21.77
2018-11-05T00:58:19.580Z,17.30
2018-11-05T01:00:52.915Z,11.60
2018-11-05T01:03:26.851Z,12.90
2018-11-05T01:05:59.656Z,11.97
2018-11-05T01:08:32.836Z,11.13
2018-11-05T01:11:05.751Z,11.67
2018-11-05T01:13:38.876Z,11.50
2018-11-05T01:16:11.811Z,13.20
2018-11-05T01:18:45.269Z,12.33
2018-11-05T01:21:18.104Z,12.83
2018-11-05T01:23:51.270Z,11.83
2018-11-05T01:26:24.207Z,12.87
2018-11-05T01:28:57.412Z,13.03
2018-11-05T01:31:29.822Z,15.40
2018-11-05T01:34:02.144Z,13.63
2018-11-05T01:36:34.635Z,11.00
2018-11-05T01:39:10.696Z,12.73
2018-11-05T01:41:43.299Z,12.70
2018-11-05T01:44:15.915Z,12.53
2018-11-05T01:46:52.913Z,11.77
2018-11-05T01:49:25.519Z,14.47
2018-11-05T01:51:58.082Z,13.90
2018-11-05T01:54:31.039Z,15.17
2018-11-05T01:57:03.923Z,16.47
2018-11-05T01:59:36.916Z,15.70
2018-11-05T02:02:10.509Z,14.50
2018-11-05T02:04:43.862Z,14.50
2018-11-05T02:07:19.089Z,13.67
2018-11-05T02:09:52.379Z,14.30
2018-11-05T02:12:25.443Z,15.37
2018-11-05T02:14:58.602Z,13.27
2018-11-05T02:17:30.786Z,11.40
2018-11-05T02:20:04.032Z,12.43
2018-11-05T02:22:37.063Z,11.60
2018-11-05T02:28:31.998Z,12.60
2018-11-05T02:31:28.637Z,13.47
2018-11-05T02:34:02.915Z,11.83
2018-11-05T02:36:35.996Z,12.37
2018-11-05T02:39:11.628Z,13.67
2018-11-05T02:41:44.954Z,13.27
2018-11-05T02:44:18.516Z,13.83
2018-11-05T02:46:52.419Z,13.23
2018-11-05T02:49:26.746Z,13.53
2018-11-05T02:52:10.053Z,15.30
2018-11-05T02:54:47.917Z,16.40
2018-11-05T02:57:20.642Z,14.60
2018-11-05T03:03:17.618Z,14.47
2018-11-05T03:05:50.216Z,14.73
2018-11-05T03:08:23.075Z,13.60
2018-11-05T03:10:55.281Z,14.23
2018-11-05T03:13:27.634Z,13.97
2018-11-05T03:15:59.870Z,12.83
2018-11-05T03:18:32.330Z,13.43
2018-11-05T03:21:04.700Z,12.43
2018-11-05T03:23:36.864Z,11.90
2018-11-05T03:26:13.548Z,12.93
2018-11-05T03:28:45.919Z,12.33
2018-11-05T03:31:18.584Z,12.97
2018-11-05T03:33:51.378Z,12.63
2018-11-05T03:36:24.063Z,12.90
2018-11-05T03:38:57.620Z,12.67
2018-11-05T03:41:32.893Z,13.33
2018-11-05T03:44:05.392Z,12.40
2018-11-05T03:46:37.991Z,12.57
2018-11-05T03:49:11.891Z,11.73
2018-11-05T03:51:44.411Z,11.97
2018-11-05T03:54:17.301Z,11.53
2018-11-05T03:56:49.608Z,11.27
2018-11-05T03:59:22.382Z,11.53
2018-11-05T04:01:55.593Z,11.77
2018-11-05T04:04:28.451Z,11.77
2018-11-05T04:07:00.759Z,10.57
2018-11-05T04:09:33.197Z,10.23
2018-11-05T04:12:06.072Z,8.00
2018-11-05T04:14:38.381Z,9.30
2018-11-05T04:17:10.666Z,8.50
2018-11-05T04:23:05.454Z,11.00
2018-11-05T04:29:00.052Z,10.20
2018-11-05T04:31:33.006Z,9.33
2018-11-05T04:34:05.931Z,10.10
2018-11-05T04:36:39.014Z,11.50
2018-11-05T04:39:15.755Z,11.03
2018-11-05T04:45:19.446Z,10.50
2018-11-05T04:47:52.624Z,10.83
2018-11-05T04:50:25.932Z,12.00
2018-11-05T04:56:19.851Z,11.37
2018-11-05T04:58:53.238Z,11.43
2018-11-05T05:01:26.542Z,10.70
2018-11-05T05:03:59.400Z,10.30
2018-11-05T05:06:32.121Z,10.33
2018-11-05T05:09:05.618Z,9.53
2018-11-05T05:11:40.194Z,8.83
2018-11-05T05:14:15.555Z,9.50
2018-11-05T05:16:50.693Z,9.63
2018-11-05T05:19:24.254Z,9.47
2018-11-05T05:21:59.165Z,9.80
2018-11-05T05:24:34.710Z,9.30
2018-11-05T05:27:10.077Z,8.97
2018-11-05T05:29:45.039Z,10.87
2018-11-05T05:32:20.453Z,10.60
2018-11-05T05:34:53.517Z,10.40
2018-11-05T05:37:26.786Z,9.33
2018-11-05T05:39:59.635Z,10.47
2018-11-05T05:42:32.701Z,9.73
2018-11-05T05:45:05.742Z,9.10
2018-11-05T05:47:38.850Z,10.07
2018-11-05T05:50:18.003Z,10.23
2018-11-05T05:52:51.567Z,9.63
2018-11-05T05:55:24.713Z,10.57
2018-11-05T05:57:58.362Z,11.30
2018-11-05T06:00:31.662Z,9.57
2018-11-05T06:03:04.875Z,10.27
2018-11-05T06:05:37.884Z,9.50
2018-11-05T06:08:10.827Z,9.33
2018-11-05T06:10:44.383Z,10.20
2018-11-05T06:13:16.816Z,10.77
2018-11-05T06:15:49.629Z,11.23
2018-11-05T06:18:23.476Z,10.80
2018-11-05T06:20:56.524Z,9.93
2018-11-05T06:23:29.160Z,9.10
2018-11-05T06:26:02.098Z,7.97
2018-11-05T06:28:34.791Z,8.80
2018-11-05T06:31:08.148Z,8.77
2018-11-05T06:33:41.466Z,8.37
2018-11-05T06:36:13.921Z,8.77
2018-11-05T06:38:46.369Z,8.23
2018-11-05T06:41:19.873Z,8.27
2018-11-05T06:43:53.629Z,8.33
2018-11-05T06:46:26.268Z,8.20
2018-11-05T06:48:59.340Z,7.37
2018-11-05T06:51:32.676Z,7.63
2018-11-05T06:54:06.775Z,7.03
2018-11-05T06:56:39.674Z,6.77
2018-11-05T06:59:12.792Z,6.17
2018-11-05T07:01:45.802Z,6.07
2018-11-05T07:04:18.960Z,6.33
2018-11-05T07:06:52.352Z,6.47
2018-11-05T07:09:25.342Z,6.93
2018-11-05T07:11:57.740Z,6.47
2018-11-05T07:14:30.621Z,6.10
2018-11-05T07:17:03.444Z,6.30
2018-11-05T07:19:36.212Z,6.47
2018-11-05T07:22:09.726Z,6.87
2018-11-05T07:24:42.042Z,6.93
2018-11-05T07:27:14.583Z,6.40
2018-11-05T07:29:47.558Z,7.17
2018-11-05T07:32:20.349Z,7.67
2018-11-05T07:34:53.370Z,7.30
2018-11-05T07:37:25.994Z,6.10
2018-11-05T07:39:59.062Z,6.67
2018-11-05T07:42:32.274Z,6.70
2018-11-05T07:45:05.460Z,6.77
2018-11-05T07:47:38.377Z,6.67
2018-11-05T07:50:14.694Z,6.27
2018-11-05T07:52:47.806Z,7.97
2018-11-05T07:58:41.745Z,8.10
2018-11-05T08:01:50.477Z,9.27
2018-11-05T08:04:23.849Z,10.03
2018-11-05T08:10:17.738Z,12.80
2018-11-05T08:12:50.713Z,15.00
2018-11-05T08:15:24.854Z,12.73
2018-11-05T08:17:57.740Z,12.80
2018-11-05T08:20:30.724Z,11.87
2018-11-05T08:23:03.607Z,11.83
2018-11-05T08:25:36.646Z,14.07
2018-11-05T08:28:09.334Z,12.80
2018-11-05T08:30:42.559Z,11.37
2018-11-05T08:33:15.472Z,12.33
2018-11-05T08:35:48.706Z,12.70
2018-11-05T08:38:22.019Z,12.70
2018-11-05T08:40:55.154Z,11.93
2018-11-05T08:43:28.331Z,11.43
2018-11-05T08:46:01.395Z,11.13
2018-11-05T08:48:34.232Z,10.33
2018-11-05T08:51:21.830Z,10.17
2018-11-05T08:53:54.533Z,10.00
2018-11-05T08:56:27.536Z,11.50
2018-11-05T09:00:01.064Z,11.77
2018-11-05T09:02:33.809Z,12.00
2018-11-05T09:05:06.777Z,11.90
2018-11-05T09:07:39.579Z,11.83
2018-11-05T09:10:12.829Z,11.63
2018-11-05T09:12:45.961Z,11.90
2018-11-05T09:15:19.999Z,10.80
2018-11-05T09:17:52.703Z,12.87
2018-11-05T09:20:25.304Z,13.17
2018-11-05T09:22:58.148Z,12.93
2018-11-05T09:25:31.075Z,14.37
2018-11-05T09:28:04.307Z,14.57
2018-11-05T09:30:37.463Z,14.90
2018-11-05T09:33:11.404Z,13.83
2018-11-05T09:35:44.249Z,12.50
2018-11-05T09:38:17.497Z,11.33
2018-11-05T09:40:50.402Z,11.40
2018-11-05T09:43:23.740Z,12.30
2018-11-05T09:45:56.162Z,11.10
2018-11-05T09:48:29.255Z,11.60
2018-11-05T09:51:02.145Z,10.10
2018-11-05T09:53:35.179Z,10.67
2018-11-05T09:56:07.977Z,12.73
2018-11-05T09:58:40.944Z,13.47
2018-11-05T10:01:13.357Z,14.53
2018-11-05T10:03:51.145Z,13.10
2018-11-05T10:06:25.150Z,13.43
2018-11-05T10:12:20.111Z,15.33
2018-11-05T10:18:23.978Z,20.53
2018-11-05T10:20:57.243Z,14.80
2018-11-05T10:23:32.536Z,12.13
2018-11-05T10:26:09.643Z,12.70
2018-11-05T10:28:43.226Z,12.43
2018-11-05T10:31:21.011Z,12.60
2018-11-05T10:33:54.393Z,13.97
2018-11-05T10:36:27.545Z,14.87
2018-11-05T10:39:01.037Z,15.27
2018-11-05T10:41:34.281Z,22.23
2018-11-05T10:44:08.200Z,16.23
2018-11-05T10:50:02.358Z,13.17
2018-11-05T10:56:06.090Z,16.27
2018-11-05T10:58:38.737Z,16.70
2018-11-05T11:01:15.289Z,17.67
2018-11-05T11:03:52.548Z,17.30
2018-11-05T11:06:25.727Z,19.17
2018-11-05T11:08:58.816Z,18.17
2018-11-05T11:11:32.317Z,17.03
2018-11-05T11:14:05.529Z,17.37
2018-11-05T11:17:08.857Z,18.97
2018-11-05T11:19:41.894Z,25.07
2018-11-05T11:22:16.525Z,19.93
2018-11-05T11:24:48.993Z,16.87
2018-11-05T11:27:23.402Z,16.80
2018-11-05T11:29:56.641Z,17.23
2018-11-05T11:32:29.978Z,18.33
2018-11-05T11:35:02.823Z,19.60
2018-11-05T11:37:35.981Z,20.37
2018-11-05T11:40:11.375Z,21.20
2018-11-05T11:42:45.384Z,22.03
2018-11-05T11:45:19.060Z,20.77
2018-11-05T11:47:51.964Z,19.23
2018-11-05T11:50:24.857Z,20.67
2018-11-05T11:52:57.347Z,20.33
2018-11-05T11:55:30.281Z,19.03
2018-11-05T11:58:03.742Z,20.80
2018-11-05T12:00:38.698Z,19.03
2018-11-05T12:03:11.814Z,19.80
2018-11-05T12:05:44.803Z,19.87
2018-11-05T12:08:17.791Z,23.70
2018-11-05T12:10:52.291Z,28.77
2018-11-05T12:13:25.245Z,19.27
2018-11-05T12:15:58.476Z,21.77
2018-11-05T12:18:34.350Z,22.33
2018-11-05T12:21:09.550Z,23.43
2018-11-05T12:27:04.830Z,23.20
2018-11-05T12:29:37.631Z,21.73
2018-11-05T12:35:42.294Z,20.83
2018-11-05T12:38:15.773Z,19.90
2018-11-05T12:40:49.170Z,22.50
2018-11-05T12:43:23.510Z,18.10
2018-11-05T12:45:56.571Z,21.13
2018-11-05T12:48:33.193Z,25.47
2018-11-05T12:51:07.518Z,24.47
2018-11-05T12:53:45.569Z,23.13
2018-11-05T12:56:20.268Z,25.23
2018-11-05T12:58:54.715Z,21.50
2018-11-05T13:01:30.517Z,21.57
2018-11-05T13:04:03.768Z,19.63
2018-11-05T13:06:37.092Z,19.77
2018-11-05T13:09:12.168Z,22.00
2018-11-05T13:11:45.436Z,20.37
2018-11-05T13:14:18.426Z,21.10
2018-11-05T13:16:52.180Z,20.80
2018-11-05T13:19:25.577Z,20.07
2018-11-05T13:21:58.825Z,22.40
2018-11-05T13:24:32.359Z,20.43
2018-11-05T13:27:06.325Z,20.53
2018-11-05T13:29:39.477Z,19.00
2018-11-05T13:32:12.596Z,17.00
2018-11-05T13:38:07.212Z,18.27
2018-11-05T13:40:39.663Z,16.50
2018-11-05T13:46:32.386Z,17.40
2018-11-05T13:49:31.323Z,16.57
2018-11-05T13:52:27.637Z,14.73
2018-11-05T13:55:26.154Z,15.33
2018-11-05T13:58:03.286Z,12.47
2018-11-05T14:00:42.026Z,15.00
2018-11-05T14:03:15.178Z,11.97
2018-11-05T14:05:48.258Z,13.37
2018-11-05T14:08:20.944Z,13.67
2018-11-05T14:10:53.599Z,13.60
2018-11-05T14:13:26.392Z,14.70
2018-11-05T14:22:47.658Z,12.67
2018-11-05T14:25:21.334Z,13.57
2018-11-05T14:27:56.237Z,12.60
2018-11-05T14:30:28.923Z,13.40
2018-11-05T14:33:02.468Z,13.90
2018-11-05T14:35:36.431Z,12.33
2018-11-05T14:38:09.778Z,11.07
2018-11-05T14:40:43.451Z,9.93
2018-11-05T14:43:24.254Z,9.80
2018-11-05T14:46:10.263Z,10.90
2018-11-05T14:48:43.909Z,11.93
2018-11-05T14:51:16.793Z,13.17
2018-11-05T14:53:50.432Z,14.20
2018-11-05T14:56:23.533Z,13.93
2018-11-05T14:58:56.711Z,12.10
2018-11-05T15:01:33.300Z,11.13
2018-11-05T15:04:11.094Z,12.50
2018-11-05T15:06:51.184Z,10.67
2018-11-05T15:12:45.137Z,13.63
2018-11-05T15:15:23.799Z,10.57
2018-11-05T15:18:03.331Z,10.23
2018-11-05T15:20:41.258Z,8.73
2018-11-05T15:23:36.138Z,10.70
2018-11-05T15:26:33.918Z,20.63
2018-11-05T15:29:28.654Z,11.57
2018-11-05T15:32:19.210Z,11.97
2018-11-05T15:35:02.677Z,10.87
2018-11-05T15:37:46.308Z,7.77
2018-11-05T15:40:25.446Z,8.20
2018-11-05T15:42:59.783Z,9.07
2018-11-05T15:45:32.901Z,8.17
2018-11-05T15:48:07.925Z,7.80
2018-11-05T15:50:42.899Z,7.77
2018-11-05T15:53:18.457Z,7.40
2018-11-05T15:55:53.333Z,8.30
2018-11-05T15:58:27.265Z,9.10
2018-11-05T16:01:00.587Z,8.10
2018-11-05T16:03:34.068Z,7.40
2018-11-05T16:06:07.450Z,7.10
2018-11-05T16:08:47.526Z,9.23
2018-11-05T16:14:45.993Z,7.17
2018-11-05T16:17:27.401Z,7.27
2018-11-05T16:20:03.601Z,6.57
2018-11-05T16:22:37.710Z,7.77
2018-11-05T16:25:13.549Z,7.47
2018-11-05T16:27:51.054Z,7.77
2018-11-05T16:30:28.594Z,6.80
2018-11-05T16:33:00.970Z,7.27
2018-11-05T16:35:40.597Z,7.33
2018-11-05T16:38:16.978Z,8.47
2018-11-05T16:40:51.220Z,6.87
2018-11-05T16:43:31.245Z,6.73
2018-11-05T16:46:05.771Z,6.50
2018-11-05T16:48:38.045Z,5.97
2018-11-05T16:51:11.162Z,6.50
2018-11-05T16:53:45.024Z,7.63
2018-11-05T16:56:22.711Z,7.40
2018-11-05T16:58:56.483Z,6.78
2018-11-05T17:01:37.936Z,6.90
2018-11-05T17:04:10.993Z,7.60
2018-11-05T17:06:43.686Z,5.63
2018-11-05T17:09:16.047Z,4.60
2018-11-05T17:11:52.924Z,5.93
2018-11-05T17:14:27.630Z,13.80
2018-11-05T17:17:00.424Z,6.10
2018-11-05T17:19:36.736Z,13.30
2018-11-05T17:22:09.448Z,6.40
2018-11-05T17:24:44.511Z,6.50
2018-11-05T17:27:19.002Z,6.30
2018-11-05T17:29:52.021Z,7.37
2018-11-05T17:32:24.357Z,6.08
2018-11-05T17:34:57.229Z,5.92
2018-11-05T17:37:29.715Z,5.58
2018-11-05T17:40:04.097Z,5.40
2018-11-05T17:42:40.918Z,6.92
2018-11-05T17:45:16.434Z,7.22
2018-11-05T17:47:56.641Z,6.25
2018-11-05T17:50:32.516Z,6.22
2018-11-05T17:53:06.611Z,7.35
2018-11-05T17:55:39.399Z,5.53
2018-11-05T17:58:14.027Z,5.28
2018-11-05T18:00:49.253Z,4.72
2018-11-05T18:34:55.934Z,4.30
2018-11-05T18:37:30.538Z,4.00
2018-11-05T19:03:30.061Z,6.22
2018-11-05T19:06:03.972Z,4.37
2018-11-05T19:08:37.645Z,3.72
2018-11-05T19:11:11.040Z,6.28
2018-11-05T19:13:45.886Z,4.47
2018-11-05T19:16:30.529Z,5.13
2018-11-05T19:19:07.296Z,5.62
2018-11-05T19:21:57.386Z,5.58
2018-11-05T19:24:37.874Z,5.53
2018-11-05T19:27:14.389Z,5.83
2018-11-05T19:29:50.024Z,5.45
2018-11-05T19:32:26.360Z,5.12
2018-11-05T19:35:01.561Z,5.22
2018-11-05T19:40:15.620Z,4.55
2018-11-05T19:42:52.873Z,4.30
2018-11-05T19:45:28.886Z,3.73
2018-11-05T19:50:36.731Z,4.83
2018-11-05T20:03:21.862Z,3.50
2018-11-05T20:36:14.552Z,2.90
2018-11-05T20:38:47.605Z,3.42
2018-11-05T20:41:20.924Z,4.50
2018-11-05T20:43:56.563Z,4.50
2018-11-05T20:46:34.137Z,5.23
2018-11-05T20:49:07.912Z,4.60
2018-11-05T20:51:41.052Z,5.67
2018-11-05T20:54:15.025Z,6.60
2018-11-05T20:56:47.602Z,5.90
2018-11-05T20:59:25.458Z,4.37
2018-11-05T21:02:38.295Z,4.53
2018-11-05T21:05:11.627Z,3.73
2018-11-05T21:07:50.055Z,5.53
2018-11-05T21:10:26.790Z,4.58
2018-11-05T21:13:01.914Z,6.50
2018-11-05T21:15:35.190Z,4.60
2018-11-05T21:18:09.037Z,4.43
2018-11-05T21:20:42.413Z,4.23
2018-11-05T21:23:15.312Z,4.20
2018-11-05T21:25:49.318Z,5.43
2018-11-05T21:28:22.797Z,4.77
2018-11-05T21:30:56.213Z,4.90
2018-11-05T21:33:29.707Z,6.93
2018-11-05T21:36:02.815Z,5.93
2018-11-05T21:38:36.629Z,6.60
2018-11-05T21:41:09.857Z,7.00
2018-11-05T21:43:42.908Z,8.63
2018-11-05T21:46:15.742Z,5.67
2018-11-05T21:48:48.808Z,4.63
2018-11-05T21:51:58.999Z,8.30
2018-11-05T21:54:31.613Z,6.87
2018-11-05T21:57:05.182Z,5.27
2018-11-05T21:59:37.912Z,5.37
2018-11-05T22:02:10.486Z,6.47
2018-11-05T22:04:43.607Z,4.40
2018-11-05T22:07:18.144Z,4.17
2018-11-05T22:09:51.155Z,3.97
2018-11-05T22:12:24.846Z,8.93
2018-11-05T22:14:59.463Z,8.50
2018-11-05T22:17:33.998Z,7.50
2018-11-05T22:20:06.830Z,6.37
2018-11-05T22:22:40.519Z,5.63
2018-11-05T22:25:13.981Z,5.67
2018-11-05T22:27:47.044Z,4.80
2018-11-05T22:30:20.221Z,4.50
2018-11-05T22:32:53.611Z,4.23
2018-11-05T22:35:26.768Z,4.60
2018-11-05T22:37:59.922Z,4.40
2018-11-05T22:40:32.789Z,4.53
2018-11-05T22:43:06.441Z,5.80
2018-11-05T22:45:39.767Z,4.80
2018-11-05T22:48:12.689Z,4.93
2018-11-05T22:50:45.791Z,6.33
2018-11-05T22:53:18.883Z,8.73
2018-11-05T22:55:51.734Z,5.97
2018-11-05T22:58:24.136Z,6.53
2018-11-05T23:01:01.463Z,4.53
2018-11-05T23:03:34.701Z,6.37
2018-11-05T23:06:08.195Z,9.43
2018-11-05T23:12:03.231Z,6.20
2018-11-05T23:14:36.309Z,5.63
2018-11-05T23:17:08.892Z,4.73
2018-11-05T23:19:42.032Z,6.57
2018-11-05T23:22:14.867Z,5.53
2018-11-05T23:24:47.448Z,5.27
2018-11-05T23:27:20.806Z,4.60
2018-11-05T23:29:53.621Z,8.37
2018-11-05T23:32:26.848Z,6.97
2018-11-05T23:38:20.367Z,3.97
2018-11-05T23:40:52.796Z,4.83
2018-11-05T23:43:25.960Z,5.07
2018-11-05T23:45:58.359Z,4.20
2018-11-05T23:48:31.402Z,5.07
2018-11-05T23:51:04.423Z,4.53
2018-11-05T23:53:37.592Z,5.33
2018-11-05T23:56:10.289Z,6.03
2018-11-05T23:59:10.071Z,5.63
